Time;durP1;ratioP1;P1;durP2;ratioP2;P2;SDS_P1;SDS_P2;PMS_P1;PMS_P2;Temp;Humidity;BMP_temperature;BMP_pressure;BME280_temperature;BME280_humidity;BME280_pressure;Samples;Min_cycle;Max_cycle;Signal;HPM_P1;HPM_P2
2024/01/03 00:01:34;;;;;;;1.42;0.40;;;14.40;65.50;;;;;;2510170;54;20989;-70
2024/01/03 00:04:01;;;;;;;3.47;0.70;;;14.40;65.50;;;;;;2289407;55;21066;-71
2024/01/03 00:06:35;;;;;;;1.30;0.40;;;14.40;65.60;;;;;;2294965;55;20989;-71
2024/01/03 00:09:01;;;;;;;2.47;0.70;;;14.40;65.60;;;;;;2279427;55;20992;-70
2024/01/03 00:11:34;;;;;;;1.65;0.52;;;14.40;65.60;;;;;;2288672;56;21006;-69
2024/01/03 00:14:07;;;;;;;3.35;0.70;;;14.40;65.60;;;;;;2289059;55;20940;-70
2024/01/03 00:16:35;;;;;;;2.20;0.47;;;14.40;65.60;;;;;;2514114;54;21891;-72
2024/01/03 00:19:03;;;;;;;1.12;0.50;;;14.30;65.70;;;;;;2284039;55;21761;-69
2024/01/03 00:21:32;;;;;;;1.98;0.50;;;14.30;65.70;;;;;;2277083;56;21123;-71
2024/01/03 00:24:02;;;;;;;1.80;0.70;;;14.30;65.80;;;;;;2277692;55;20964;-71
2024/01/03 00:26:29;;;;;;;2.00;0.60;;;14.30;65.80;;;;;;2277622;55;21441;-70
2024/01/03 00:28:56;;;;;;;1.33;0.50;;;14.30;65.90;;;;;;2277621;55;21027;-70
2024/01/03 00:31:41;;;;;;;2.00;0.52;;;14.30;65.90;;;;;;2509883;55;21473;-70
2024/01/03 00:35:59;;;;;;;2.10;0.70;;;14.30;65.70;;;;;;2509820;55;20992;-70
2024/01/03 00:38:26;;;;;;;1.15;0.50;;;14.30;65.40;;;;;;2509918;54;21087;-71
2024/01/03 00:40:55;;;;;;;1.65;0.50;;;14.20;65.90;;;;;;2283777;55;21057;-72
2024/01/03 00:43:22;;;;;;;1.52;0.47;;;14.20;65.90;;;;;;2510375;54;20963;-72
2024/01/03 00:45:48;;;;;;;1.08;0.40;;;14.20;66.20;;;;;;2510370;54;21441;-72
2024/01/03 00:48:15;;;;;;;1.52;0.47;;;14.20;66.60;;;;;;2284175;55;20942;-74
2024/01/03 00:50:43;;;;;;;2.95;0.50;;;14.10;67.00;;;;;;2284432;54;21125;-72
2024/01/03 00:53:12;;;;;;;1.70;0.70;;;14.10;67.40;;;;;;2510250;54;20960;-71
2024/01/03 00:55:39;;;;;;;2.10;0.60;;;14.00;67.70;;;;;;2510925;54;20980;-71
2024/01/03 00:58:06;;;;;;;1.05;0.50;;;14.00;68.10;;;;;;2277929;56;20960;-71
2024/01/03 01:00:32;;;;;;;1.75;0.50;;;14.00;68.40;;;;;;2510315;54;22084;-73
2024/01/03 01:02:59;;;;;;;1.98;0.75;;;14.00;68.60;;;;;;2510116;55;21046;-71
2024/01/03 01:05:25;;;;;;;3.05;0.70;;;13.90;68.70;;;;;;2277839;55;20964;-72
2024/01/03 01:07:53;;;;;;;1.60;0.60;;;13.90;69.00;;;;;;2277842;55;20964;-71
2024/01/03 01:10:19;;;;;;;1.35;0.47;;;13.80;69.20;;;;;;2510000;54;20953;-71
2024/01/03 01:12:45;;;;;;;1.25;0.57;;;13.90;69.40;;;;;;2510507;55;20960;-73
2024/01/03 01:15:11;;;;;;;2.03;0.68;;;14.00;69.70;;;;;;2283994;55;20954;-71
2024/01/03 01:17:38;;;;;;;2.42;0.93;;;13.80;69.70;;;;;;2277840;55;21021;-71
2024/01/03 01:20:05;;;;;;;2.05;0.62;;;13.80;69.80;;;;;;2277855;56;21033;-71
2024/01/03 01:22:32;;;;;;;1.35;0.60;;;13.80;70.00;;;;;;2277730;55;21008;-71
2024/01/03 01:24:58;;;;;;;2.75;0.70;;;13.80;70.10;;;;;;2277870;56;21491;-71
2024/01/03 01:27:24;;;;;;;2.17;0.70;;;13.80;70.20;;;;;;2506622;55;21114;-70
2024/01/03 01:29:51;;;;;;;1.77;0.60;;;13.80;70.30;;;;;;2278797;55;20960;-71
2024/01/03 01:32:18;;;;;;;2.35;0.60;;;13.80;70.30;;;;;;2277421;55;20983;-71
2024/01/03 01:34:47;;;;;;;1.08;0.45;;;13.70;70.30;;;;;;2278083;55;20933;-71
2024/01/03 01:37:13;;;;;;;2.33;0.80;;;13.70;70.40;;;;;;2509663;55;21056;-72
2024/01/03 01:39:40;;;;;;;1.45;0.60;;;13.80;70.60;;;;;;2513479;54;20952;-71
2024/01/03 01:42:06;;;;;;;0.68;0.30;;;13.70;70.50;;;;;;2277476;55;21435;-71
2024/01/03 01:44:32;;;;;;;1.65;0.80;;;13.70;70.60;;;;;;2277179;55;20968;-71
2024/01/03 01:47:02;;;;;;;1.50;0.60;;;13.70;70.70;;;;;;2288955;55;21038;-70
2024/01/03 01:49:28;;;;;;;1.23;0.50;;;13.70;71.40;;;;;;2280617;54;20971;-71
2024/01/03 01:51:55;;;;;;;1.75;0.70;;;13.70;70.80;;;;;;2282374;55;21394;-71
2024/01/03 01:54:23;;;;;;;1.02;0.50;;;13.70;70.90;;;;;;2512471;54;21073;-70
2024/01/03 01:56:49;;;;;;;2.53;0.62;;;13.70;71.00;;;;;;2277918;56;20945;-72
2024/01/03 01:59:16;;;;;;;1.45;0.52;;;13.70;71.20;;;;;;2277926;55;21245;-70
2024/01/03 02:01:43;;;;;;;0.82;0.40;;;13.70;71.20;;;;;;2509476;54;20936;-70
2024/01/03 02:04:09;;;;;;;2.12;0.65;;;13.70;71.20;;;;;;2511486;54;21569;-71
2024/01/03 02:06:35;;;;;;;1.75;0.65;;;13.70;71.30;;;;;;2278978;55;20957;-71
2024/01/03 02:09:06;;;;;;;1.35;0.50;;;13.70;71.30;;;;;;2510569;54;20961;-70
2024/01/03 02:11:33;;;;;;;3.42;0.70;;;13.70;71.30;;;;;;2509773;54;21064;-70
2024/01/03 02:13:59;;;;;;;1.45;0.50;;;13.80;71.50;;;;;;2508896;54;21421;-70
2024/01/03 02:16:26;;;;;;;1.90;0.60;;;13.70;71.40;;;;;;2281870;55;21605;-71
2024/01/03 02:18:52;;;;;;;2.35;0.60;;;13.80;71.50;;;;;;2279718;55;20992;-70
2024/01/03 02:21:18;;;;;;;1.58;0.60;;;13.70;71.50;;;;;;2511362;54;20993;-71
2024/01/03 02:23:45;;;;;;;1.70;0.60;;;13.70;72.20;;;;;;2510483;54;20940;-70
2024/01/03 02:26:11;;;;;;;1.15;0.47;;;13.70;71.50;;;;;;2511936;53;20962;-70
2024/01/03 02:28:39;;;;;;;2.95;0.62;;;13.80;71.60;;;;;;2509253;54;20948;-71
2024/01/03 02:31:06;;;;;;;1.30;0.50;;;13.80;71.60;;;;;;2277294;55;21018;-71
2024/01/03 02:33:33;;;;;;;1.50;0.68;;;13.80;71.60;;;;;;2277112;56;21068;-70
2024/01/03 02:36:00;;;;;;;1.95;0.70;;;13.80;71.70;;;;;;2278039;56;20932;-70
2024/01/03 02:38:26;;;;;;;2.22;0.70;;;13.80;71.60;;;;;;2512070;53;21881;-71
2024/01/03 02:40:52;;;;;;;1.95;0.70;;;13.80;71.60;;;;;;2511649;54;20980;-70
2024/01/03 02:43:18;;;;;;;2.28;0.60;;;13.80;71.60;;;;;;2510259;54;20992;-70
2024/01/03 02:45:45;;;;;;;1.83;0.60;;;13.80;71.60;;;;;;2509623;54;21611;-70
2024/01/03 02:48:12;;;;;;;1.65;0.55;;;13.80;71.60;;;;;;2278148;55;21036;-71
2024/01/03 02:50:43;;;;;;;1.70;0.60;;;13.80;71.60;;;;;;2510247;55;20968;-70
2024/01/03 02:53:10;;;;;;;3.17;0.60;;;13.80;71.60;;;;;;2510665;54;21440;-72
2024/01/03 02:55:36;;;;;;;3.08;0.55;;;13.80;71.60;;;;;;2301070;54;20966;-71
2024/01/03 02:58:03;;;;;;;1.12;0.50;;;13.80;71.60;;;;;;2278148;56;21512;-70
2024/01/03 03:00:30;;;;;;;1.77;0.50;;;13.80;71.60;;;;;;2277435;56;20975;-71
2024/01/03 03:02:56;;;;;;;1.75;0.70;;;13.80;71.40;;;;;;2278452;55;21462;-70
2024/01/03 03:05:25;;;;;;;1.42;0.60;;;13.80;71.50;;;;;;2276576;54;20932;-71
2024/01/03 03:07:52;;;;;;;1.42;0.60;;;13.80;71.50;;;;;;2510247;55;21809;-71
2024/01/03 03:10:20;;;;;;;3.22;0.82;;;13.80;71.70;;;;;;2263103;56;20936;-71
2024/01/03 03:12:46;;;;;;;1.48;0.60;;;13.80;71.60;;;;;;2277161;56;21052;-69
2024/01/03 03:15:14;;;;;;;2.42;0.70;;;13.80;71.60;;;;;;2277405;55;21790;-70
2024/01/03 03:17:41;;;;;;;2.08;0.70;;;13.80;71.70;;;;;;2509957;54;21036;-71
2024/01/03 03:20:10;;;;;;;2.62;0.80;;;13.80;71.70;;;;;;2277955;56;20956;-71
2024/01/03 03:22:37;;;;;;;1.92;0.68;;;13.80;71.70;;;;;;2276814;56;20960;-70
2024/01/03 03:25:04;;;;;;;1.27;0.50;;;13.80;71.70;;;;;;2278023;55;21025;-70
2024/01/03 03:27:31;;;;;;;1.75;0.50;;;13.80;71.70;;;;;;2276887;55;20975;-70
2024/01/03 03:29:58;;;;;;;1.73;0.62;;;13.90;71.90;;;;;;2277368;55;21695;-71
2024/01/03 03:32:24;;;;;;;2.17;0.60;;;13.80;71.70;;;;;;2278048;55;21441;-69
2024/01/03 03:34:52;;;;;;;1.80;0.60;;;13.80;71.80;;;;;;2277502;55;21954;-70
2024/01/03 03:37:24;;;;;;;2.45;0.70;;;13.80;71.90;;;;;;2278355;56;21072;-71
2024/01/03 03:39:51;;;;;;;1.48;0.60;;;13.90;72.00;;;;;;2509764;54;21391;-71
2024/01/03 03:42:18;;;;;;;1.98;0.50;;;13.90;71.90;;;;;;2512334;54;20983;-70
2024/01/03 03:44:44;;;;;;;1.70;0.50;;;13.90;72.00;;;;;;2508969;54;21452;-70
2024/01/03 03:47:11;;;;;;;1.35;0.40;;;13.80;71.90;;;;;;2512104;54;20993;-71
2024/01/03 03:49:37;;;;;;;2.08;0.62;;;13.80;72.60;;;;;;2277900;55;20960;-70
2024/01/03 03:52:04;;;;;;;2.70;0.60;;;13.90;72.00;;;;;;2277924;56;21028;-70
2024/01/03 03:54:30;;;;;;;1.52;0.60;;;13.90;72.00;;;;;;2277764;55;20940;-72
2024/01/03 03:56:57;;;;;;;1.17;0.50;;;13.90;71.90;;;;;;2263184;56;21805;-71
2024/01/03 03:59:23;;;;;;;1.48;0.52;;;13.90;72.00;;;;;;2278326;56;21900;-72
2024/01/03 04:01:50;;;;;;;2.45;0.60;;;13.90;72.00;;;;;;2277606;55;20968;-71
2024/01/03 04:04:20;;;;;;;1.30;0.60;;;13.90;72.00;;;;;;2278773;56;21032;-71
2024/01/03 04:06:46;;;;;;;1.30;0.50;;;13.90;71.90;;;;;;2277729;56;21572;-71
2024/01/03 04:09:13;;;;;;;1.25;0.50;;;13.90;72.10;;;;;;2510269;54;20960;-70
2024/01/03 04:11:43;;;;;;;2.97;0.68;;;13.90;72.00;;;;;;2509640;54;21868;-71
2024/01/03 04:14:10;;;;;;;1.58;0.70;;;13.90;72.00;;;;;;2509577;54;20916;-71
2024/01/03 04:16:36;;;;;;;1.48;0.60;;;13.90;72.10;;;;;;2510341;54;20985;-70
2024/01/03 04:19:03;;;;;;;1.50;0.60;;;13.90;72.10;;;;;;2277310;56;21008;-70
2024/01/03 04:21:30;;;;;;;1.20;0.52;;;13.90;72.20;;;;;;2278228;55;20960;-71
2024/01/03 04:23:56;;;;;;;2.08;0.50;;;14.00;72.30;;;;;;2282987;55;20958;-70
2024/01/03 04:26:22;;;;;;;1.05;0.40;;;14.00;72.30;;;;;;2282244;55;21539;-70
2024/01/03 04:28:49;;;;;;;2.10;0.73;;;14.00;72.70;;;;;;2511368;53;21552;-71
2024/01/03 04:31:16;;;;;;;1.35;0.47;;;13.90;72.20;;;;;;2277911;56;21753;-71
2024/01/03 04:33:42;;;;;;;1.12;0.40;;;13.90;72.20;;;;;;2277154;55;20972;-71
2024/01/03 04:36:11;;;;;;;2.50;0.70;;;13.90;72.30;;;;;;2510146;54;20921;-71
2024/01/03 04:38:40;;;;;;;1.87;0.80;;;14.00;72.40;;;;;;2509719;54;20904;-70
2024/01/03 04:41:06;;;;;;;1.60;0.62;;;14.00;72.40;;;;;;2277722;56;20976;-70
2024/01/03 04:43:32;;;;;;;2.12;0.70;;;14.00;72.40;;;;;;2510355;55;20945;-71
2024/01/03 04:46:00;;;;;;;3.85;1.17;;;14.00;72.30;;;;;;2277744;56;21016;-71
2024/01/03 04:48:26;;;;;;;3.17;1.10;;;14.00;72.40;;;;;;2510220;54;21402;-70
2024/01/03 04:50:55;;;;;;;1.83;0.60;;;14.00;72.40;;;;;;2509480;54;21307;-71
2024/01/03 04:53:22;;;;;;;1.67;0.62;;;14.00;72.30;;;;;;2510188;54;20956;-70
2024/01/03 04:55:48;;;;;;;1.77;0.60;;;14.00;72.30;;;;;;2509609;54;21028;-69
2024/01/03 04:58:14;;;;;;;2.47;0.90;;;14.00;72.30;;;;;;2509240;54;20964;-69
2024/01/03 05:00:41;;;;;;;1.70;0.50;;;14.00;72.30;;;;;;2277087;55;22130;-71
2024/01/03 05:03:08;;;;;;;1.50;0.50;;;14.00;72.20;;;;;;2508793;54;20976;-71
2024/01/03 05:05:36;;;;;;;1.60;0.40;;;14.00;72.10;;;;;;2510910;54;21002;-71
2024/01/03 05:08:04;;;;;;;1.37;0.60;;;14.00;72.10;;;;;;2511687;54;21052;-70
2024/01/03 05:10:31;;;;;;;1.25;0.45;;;14.00;72.80;;;;;;2277798;55;20955;-70
2024/01/03 05:12:57;;;;;;;0.45;0.30;;;14.00;72.80;;;;;;2508883;54;21492;-70
2024/01/03 05:15:24;;;;;;;1.08;0.50;;;14.00;72.20;;;;;;2509133;54;21020;-70
2024/01/03 05:17:51;;;;;;;1.95;0.50;;;14.00;72.20;;;;;;2277214;56;20936;-71
2024/01/03 05:20:17;;;;;;;2.55;0.75;;;14.00;72.30;;;;;;2510350;54;20967;-71
2024/01/03 05:22:45;;;;;;;2.22;0.60;;;14.00;72.20;;;;;;2276933;56;21125;-71
2024/01/03 05:25:12;;;;;;;2.83;0.60;;;14.00;72.20;;;;;;2508627;55;21493;-71
2024/01/03 05:27:38;;;;;;;1.98;0.60;;;13.90;72.10;;;;;;2510057;54;20936;-69
2024/01/03 05:30:05;;;;;;;1.10;0.50;;;14.00;72.10;;;;;;2510069;54;21504;-71
2024/01/03 05:32:32;;;;;;;1.98;0.60;;;13.90;72.00;;;;;;2278567;56;20932;-71
2024/01/03 05:34:58;;;;;;;2.53;0.70;;;13.90;72.00;;;;;;2277175;56;20997;-70
2024/01/03 05:37:27;;;;;;;2.45;0.60;;;13.90;71.90;;;;;;2278210;55;20952;-71
2024/01/03 05:39:53;;;;;;;1.52;0.50;;;14.00;72.00;;;;;;2509757;55;20928;-71
2024/01/03 05:42:19;;;;;;;3.35;0.65;;;13.90;71.80;;;;;;2277831;55;20964;-70
2024/01/03 05:44:46;;;;;;;1.62;0.52;;;13.90;71.80;;;;;;2278163;55;21778;-71
2024/01/03 05:47:12;;;;;;;1.98;0.62;;;13.90;71.70;;;;;;2518019;54;21046;-70
2024/01/03 05:49:39;;;;;;;2.03;0.50;;;13.80;71.60;;;;;;2523217;54;21769;-71
2024/01/03 05:52:08;;;;;;;1.95;0.70;;;13.80;71.60;;;;;;2509493;54;20948;-70
2024/01/03 05:54:35;;;;;;;2.60;0.70;;;13.80;71.70;;;;;;2277658;56;21000;-71
2024/01/03 05:57:02;;;;;;;4.25;0.75;;;13.80;71.70;;;;;;2509576;55;20964;-70
2024/01/03 05:59:28;;;;;;;2.03;0.60;;;13.80;71.70;;;;;;2509991;55;20980;-70
2024/01/03 06:01:55;;;;;;;2.03;0.70;;;13.80;71.80;;;;;;2509253;55;20968;-70
2024/01/03 06:04:25;;;;;;;3.00;0.73;;;13.80;71.80;;;;;;2278267;55;21797;-70
2024/01/03 06:06:51;;;;;;;3.95;1.00;;;13.80;71.90;;;;;;2277190;55;21008;-70
2024/01/03 06:09:18;;;;;;;5.25;0.82;;;13.80;72.10;;;;;;2510286;54;21000;-70
2024/01/03 06:11:44;;;;;;;3.90;0.80;;;13.70;71.90;;;;;;2513314;54;21033;-69
2024/01/03 06:14:10;;;;;;;3.62;0.70;;;13.70;72.00;;;;;;2511190;54;21034;-70
2024/01/03 06:16:38;;;;;;;2.50;0.62;;;13.70;72.00;;;;;;2513137;54;20985;-71
2024/01/03 06:19:04;;;;;;;4.60;0.85;;;13.80;72.20;;;;;;2509742;55;20976;-70
2024/01/03 06:21:32;;;;;;;5.50;1.20;;;13.80;72.10;;;;;;2281641;55;21338;-71
2024/01/03 06:24:00;;;;;;;4.30;0.88;;;13.70;72.10;;;;;;2282481;55;21466;-71
2024/01/03 06:26:30;;;;;;;2.25;0.60;;;13.70;72.10;;;;;;2279029;55;20980;-70
2024/01/03 06:29:00;;;;;;;2.97;0.70;;;13.70;72.20;;;;;;2277628;55;21492;-72
2024/01/03 06:31:27;;;;;;;2.15;0.70;;;13.70;72.20;;;;;;2278093;55;21484;-71
2024/01/03 06:33:53;;;;;;;1.50;0.52;;;13.80;72.30;;;;;;2280444;56;20976;-70
2024/01/03 06:36:20;;;;;;;4.25;0.80;;;13.70;72.20;;;;;;2518715;53;21033;-70
2024/01/03 06:38:50;;;;;;;2.08;0.62;;;13.80;72.30;;;;;;2509730;54;21028;-70
2024/01/03 06:41:18;;;;;;;3.17;0.62;;;13.80;72.20;;;;;;2510460;55;21805;-70
2024/01/03 06:43:44;;;;;;;1.55;0.55;;;13.70;72.20;;;;;;2277976;55;21038;-70
2024/01/03 06:46:12;;;;;;;2.47;0.50;;;13.80;72.30;;;;;;2276854;56;20984;-71
2024/01/03 06:48:38;;;;;;;1.62;0.50;;;13.80;72.30;;;;;;2509874;54;21097;-70
2024/01/03 06:51:05;;;;;;;2.78;0.60;;;13.80;72.30;;;;;;2282204;55;20978;-70
2024/01/03 06:53:31;;;;;;;3.08;0.70;;;13.80;72.30;;;;;;2283388;54;21501;-70
2024/01/03 06:55:57;;;;;;;3.50;0.70;;;13.70;72.10;;;;;;2278129;54;21004;-71
2024/01/03 06:58:25;;;;;;;3.15;0.70;;;13.80;72.30;;;;;;2281415;55;20968;-70
2024/01/03 07:00:53;;;;;;;1.85;0.60;;;13.80;72.30;;;;;;2512750;53;20992;-70
2024/01/03 07:03:19;;;;;;;4.32;0.70;;;13.80;72.40;;;;;;2510078;54;21013;-70
2024/01/03 07:05:45;;;;;;;3.53;0.60;;;13.80;72.40;;;;;;2277481;55;20980;-71
2024/01/03 07:08:12;;;;;;;4.78;0.77;;;13.80;72.30;;;;;;2281885;55;21026;-70
2024/01/03 07:10:43;;;;;;;2.83;0.60;;;13.80;72.30;;;;;;2285579;54;21032;-69
2024/01/03 07:13:10;;;;;;;2.35;0.60;;;13.80;72.10;;;;;;2509636;54;20988;-70
2024/01/03 07:15:36;;;;;;;1.92;0.60;;;13.80;72.40;;;;;;2277630;56;21091;-69
2024/01/03 07:18:03;;;;;;;2.20;0.50;;;13.80;72.20;;;;;;2281175;55;21053;-71
2024/01/03 07:20:31;;;;;;;5.15;0.77;;;13.80;72.20;;;;;;2286343;55;20937;-71
2024/01/03 07:22:57;;;;;;;4.12;1.08;;;13.80;72.20;;;;;;2507970;54;21024;-71
2024/01/03 07:25:25;;;;;;;6.65;1.00;;;13.90;72.30;;;;;;2278206;55;21016;-70
2024/01/03 07:27:51;;;;;;;5.45;1.05;;;13.80;72.20;;;;;;2276484;55;21040;-70
2024/01/03 07:30:17;;;;;;;4.87;1.02;;;13.80;72.10;;;;;;2509610;54;20944;-70
2024/01/03 07:32:44;;;;;;;4.68;0.80;;;13.80;72.10;;;;;;2277845;56;20969;-70
2024/01/03 07:35:10;;;;;;;3.85;0.73;;;13.80;72.10;;;;;;2277337;56;21534;-70
2024/01/03 07:37:37;;;;;;;5.03;0.90;;;13.80;72.00;;;;;;2510426;54;21027;-70
2024/01/03 07:40:04;;;;;;;4.07;0.95;;;13.80;72.10;;;;;;2513283;54;20946;-70
2024/01/03 07:42:30;;;;;;;3.03;0.93;;;13.80;72.00;;;;;;2278492;55;20944;-70
2024/01/03 07:44:59;;;;;;;2.83;0.70;;;13.80;72.00;;;;;;2276787;56;21024;-70
2024/01/03 07:47:28;;;;;;;4.87;1.10;;;13.80;72.10;;;;;;2278125;55;21009;-70
2024/01/03 07:49:54;;;;;;;5.87;0.82;;;13.80;72.10;;;;;;2509753;54;21419;-71
2024/01/03 07:52:21;;;;;;;3.17;0.80;;;13.80;72.00;;;;;;2280090;55;20984;-70
2024/01/03 07:54:48;;;;;;;4.87;0.98;;;13.80;72.00;;;;;;2277865;56;20932;-71
2024/01/03 07:57:15;;;;;;;6.25;0.90;;;13.80;72.00;;;;;;2509627;54;21735;-70
2024/01/03 07:59:44;;;;;;;8.35;1.33;;;13.80;72.00;;;;;;2277930;56;20949;-70
2024/01/03 08:02:14;;;;;;;3.17;0.70;;;13.80;71.80;;;;;;2509309;54;20964;-70
2024/01/03 08:04:44;;;;;;;3.85;1.10;;;13.80;71.70;;;;;;2509964;54;21692;-70
2024/01/03 08:07:10;;;;;;;3.53;0.70;;;13.80;71.80;;;;;;2277311;56;20964;-70
2024/01/03 08:09:39;;;;;;;1.90;0.60;;;13.80;71.90;;;;;;2282921;55;20998;-70
2024/01/03 08:12:06;;;;;;;3.10;0.68;;;13.80;71.90;;;;;;2510195;54;20949;-71
2024/01/03 08:14:34;;;;;;;3.70;0.60;;;13.80;72.00;;;;;;2277538;56;21016;-70
2024/01/03 08:17:00;;;;;;;3.15;0.62;;;13.80;72.00;;;;;;2276403;55;20947;-70
2024/01/03 08:19:29;;;;;;;3.87;0.75;;;13.80;72.00;;;;;;2510030;54;20981;-71
2024/01/03 08:21:55;;;;;;;3.40;0.70;;;13.80;71.80;;;;;;2277954;56;20948;-69
2024/01/03 08:24:24;;;;;;;3.35;0.70;;;13.80;71.90;;;;;;2510281;54;21024;-69
2024/01/03 08:26:57;;;;;;;4.47;0.68;;;13.80;71.80;;;;;;2510477;54;21430;-70
2024/01/03 08:29:32;;;;;;;4.30;0.80;;;13.80;72.40;;;;;;2279608;55;21406;-71
2024/01/03 08:32:00;;;;;;;1.70;0.68;;;13.80;71.60;;;;;;2277097;56;21008;-70
2024/01/03 08:34:27;;;;;;;3.50;0.68;;;13.90;71.70;;;;;;2510498;55;20996;-70
2024/01/03 08:36:54;;;;;;;2.53;0.50;;;13.90;71.60;;;;;;2277401;56;21000;-70
2024/01/03 08:39:21;;;;;;;2.33;0.43;;;13.80;71.70;;;;;;2276995;56;20982;-71
2024/01/03 08:41:53;;;;;;;4.20;0.77;;;13.90;71.80;;;;;;2277435;55;21008;-69
2024/01/03 08:44:21;;;;;;;2.30;0.68;;;13.90;71.90;;;;;;2277768;56;20952;-70
2024/01/03 08:46:47;;;;;;;4.70;1.15;;;13.90;71.80;;;;;;2278114;56;20965;-70
2024/01/03 08:49:14;;;;;;;2.40;0.65;;;13.90;71.60;;;;;;2276875;56;21024;-69
2024/01/03 08:51:46;;;;;;;2.72;0.70;;;13.90;71.70;;;;;;2272051;56;20949;-70
2024/01/03 08:54:12;;;;;;;3.78;0.85;;;13.90;71.50;;;;;;2276980;56;21421;-71
2024/01/03 08:56:39;;;;;;;4.37;1.00;;;13.90;71.60;;;;;;2509964;55;20929;-69
2024/01/03 08:59:05;;;;;;;4.68;0.70;;;13.90;71.60;;;;;;2509275;54;20996;-70
2024/01/03 09:01:34;;;;;;;3.05;1.00;;;13.90;71.80;;;;;;2278598;56;20944;-71
2024/01/03 09:04:02;;;;;;;3.30;0.75;;;13.90;71.80;;;;;;2510067;55;21845;-69
2024/01/03 09:06:28;;;;;;;5.57;0.93;;;13.90;71.70;;;;;;2280142;55;20956;-70
2024/01/03 09:08:54;;;;;;;4.05;0.93;;;13.90;71.80;;;;;;2510364;55;20988;-71
2024/01/03 09:11:25;;;;;;;3.65;1.02;;;13.90;71.80;;;;;;2277973;56;20960;-70
2024/01/03 09:13:52;;;;;;;3.10;0.57;;;13.90;71.50;;;;;;2510405;54;21856;-70
2024/01/03 09:16:26;;;;;;;4.97;1.00;;;13.90;71.80;;;;;;2510272;54;20932;-71
2024/01/03 09:18:52;;;;;;;3.70;0.88;;;13.90;71.50;;;;;;2510799;55;21797;-71
2024/01/03 09:21:18;;;;;;;4.70;1.00;;;14.00;71.70;;;;;;2277902;56;21392;-71
2024/01/03 09:23:44;;;;;;;5.05;1.00;;;13.90;71.60;;;;;;2509556;55;21009;-71
2024/01/03 09:26:12;;;;;;;2.70;0.77;;;13.90;71.50;;;;;;2509978;54;20943;-71
2024/01/03 09:28:39;;;;;;;5.10;1.00;;;13.90;71.70;;;;;;2512131;54;21070;-71
2024/01/03 09:31:09;;;;;;;4.43;0.75;;;14.00;71.70;;;;;;2297687;55;21026;-71
2024/01/03 09:33:35;;;;;;;3.35;0.88;;;14.00;71.70;;;;;;2510482;55;20972;-71
2024/01/03 09:36:01;;;;;;;3.62;0.80;;;14.00;72.50;;;;;;2278682;56;20944;-71
2024/01/03 09:38:28;;;;;;;4.80;1.10;;;14.00;71.70;;;;;;2510958;55;20968;-70
2024/01/03 09:40:55;;;;;;;3.17;0.50;;;14.10;71.50;;;;;;2278414;56;20960;-70
2024/01/03 09:43:22;;;;;;;2.87;0.70;;;14.00;71.70;;;;;;2510466;54;20940;-71
2024/01/03 09:45:48;;;;;;;3.42;0.70;;;14.00;71.70;;;;;;2277832;55;20948;-69
2024/01/03 09:48:15;;;;;;;1.85;0.68;;;14.10;72.40;;;;;;2277523;55;21091;-71
2024/01/03 09:50:41;;;;;;;5.12;0.80;;;14.10;71.70;;;;;;2278322;56;21316;-71
2024/01/03 09:53:10;;;;;;;4.78;0.95;;;14.10;71.60;;;;;;2509866;55;20964;-70
2024/01/03 09:55:37;;;;;;;2.62;0.77;;;14.10;71.50;;;;;;2510703;54;20953;-70
2024/01/03 09:58:04;;;;;;;3.65;0.90;;;14.10;71.70;;;;;;2277233;56;21076;-70
2024/01/03 10:00:31;;;;;;;4.12;0.88;;;14.10;71.60;;;;;;2510150;54;20949;-70
2024/01/03 10:03:16;;;;;;;4.20;0.65;;;14.10;71.70;;;;;;2277554;56;21059;-70
2024/01/03 10:05:43;;;;;;;3.40;0.60;;;14.20;70.90;;;;;;2278206;56;20988;-69
2024/01/03 10:08:17;;;;;;;2.65;0.70;;;14.20;71.60;;;;;;2277643;55;20932;-71
2024/01/03 10:10:45;;;;;;;3.03;0.65;;;14.20;71.30;;;;;;2510228;54;20951;-71
2024/01/03 10:13:19;;;;;;;4.32;0.70;;;14.20;71.40;;;;;;2509429;55;20968;-71
2024/01/03 10:15:46;;;;;;;3.83;0.80;;;14.20;71.20;;;;;;2510308;54;20989;-71
2024/01/03 10:18:17;;;;;;;2.78;0.60;;;14.30;71.70;;;;;;2278426;55;20956;-70
2024/01/03 10:20:43;;;;;;;4.90;0.82;;;14.30;71.70;;;;;;2283419;55;21458;-71
2024/01/03 10:23:11;;;;;;;3.40;0.70;;;14.30;71.80;;;;;;2278406;55;21008;-71
2024/01/03 10:25:38;;;;;;;2.28;0.50;;;14.30;72.10;;;;;;2510116;55;21902;-69
2024/01/03 10:28:05;;;;;;;1.67;0.65;;;14.30;72.30;;;;;;2508925;54;20953;-71
2024/01/03 10:30:40;;;;;;;2.47;0.47;;;14.40;72.40;;;;;;2277637;56;21072;-71
2024/01/03 10:33:07;;;;;;;3.05;0.40;;;14.40;71.90;;;;;;2487797;55;21008;-70
2024/01/03 10:35:35;;;;;;;1.58;0.40;;;14.50;72.50;;;;;;2508767;55;20932;-71
2024/01/03 10:38:02;;;;;;;5.22;0.80;;;14.50;72.50;;;;;;2509720;54;21448;-70
2024/01/03 10:40:32;;;;;;;2.30;0.60;;;14.50;72.30;;;;;;2277309;56;21681;-71
2024/01/03 10:43:01;;;;;;;3.28;0.73;;;14.50;72.50;;;;;;2277165;56;21072;-71
2024/01/03 10:45:29;;;;;;;2.33;0.40;;;14.60;72.40;;;;;;2508791;55;20860;-71
2024/01/03 10:47:55;;;;;;;2.50;0.50;;;14.60;72.50;;;;;;2283530;55;21150;-70
2024/01/03 10:50:21;;;;;;;3.03;0.85;;;14.60;72.60;;;;;;2277178;56;21478;-71
2024/01/03 10:52:48;;;;;;;3.72;0.60;;;14.70;72.70;;;;;;2277606;55;20940;-71
2024/01/03 10:55:19;;;;;;;2.30;0.52;;;14.70;72.90;;;;;;2276795;56;20944;-71
2024/01/03 10:57:58;;;;;;;2.33;0.93;;;14.80;72.60;;;;;;2525020;54;21308;-71
2024/01/03 11:01:02;;;;;;;1.80;0.60;;;14.80;72.20;;;;;;2284929;55;21477;-71
2024/01/03 11:03:32;;;;;;;;;;;14.80;71.70;;;;;;2280527;56;21087;-72
2024/01/03 11:06:30;;;;;;;3.22;0.60;;;14.90;71.00;;;;;;2277593;56;20057;-71
2024/01/03 11:09:01;;;;;;;2.28;0.47;;;14.90;71.60;;;;;;2509375;54;21468;-71
2024/01/03 11:11:34;;;;;;;3.58;0.75;;;15.00;72.60;;;;;;2278017;55;21461;-70
2024/01/03 11:14:38;;;;;;;5.43;0.68;;;14.90;71.90;;;;;;2277976;56;21173;-71
2024/01/03 11:17:05;;;;;;;1.70;0.50;;;15.00;72.20;;;;;;2510362;54;20964;-70
2024/01/03 11:19:33;;;;;;;2.97;0.60;;;15.00;72.10;;;;;;2277388;55;20952;-71
2024/01/03 11:22:02;;;;;;;2.80;0.80;;;15.10;72.10;;;;;;2510154;54;20961;-71
2024/01/03 11:24:52;;;;;;;3.08;0.60;;;15.00;72.20;;;;;;2509280;54;21595;-71
2024/01/03 11:27:19;;;;;;;1.17;0.40;;;15.00;71.00;;;;;;2281316;55;21065;-71
2024/01/03 11:29:51;;;;;;;2.95;0.60;;;15.00;72.00;;;;;;2522361;53;20962;-70
2024/01/03 11:32:30;;;;;;;3.05;0.70;;;15.00;71.90;;;;;;2509586;54;21528;-71
2024/01/03 11:34:58;;;;;;;1.27;0.40;;;15.00;71.20;;;;;;2293540;55;21049;-71
2024/01/03 11:37:35;;;;;;;3.25;0.90;;;15.00;71.90;;;;;;2287538;55;20942;-70
2024/01/03 11:40:04;;;;;;;2.97;0.73;;;14.90;71.30;;;;;;2509337;54;20929;-71
2024/01/03 11:42:38;;;;;;;1.73;0.65;;;14.90;71.80;;;;;;2276735;55;21160;-71
2024/01/03 11:45:19;;;;;;;1.45;0.50;;;14.90;71.80;;;;;;2528386;54;20968;-71
2024/01/03 11:47:50;;;;;;;2.25;0.40;;;15.00;71.50;;;;;;2279033;55;21762;-71
2024/01/03 11:50:16;;;;;;;2.72;0.50;;;15.00;72.00;;;;;;2277194;55;21507;-71
2024/01/03 11:52:47;;;;;;;3.45;0.60;;;15.00;71.90;;;;;;2283162;55;20946;-71
2024/01/03 11:55:16;;;;;;;2.37;0.65;;;14.90;71.90;;;;;;2510343;54;21020;-70
2024/01/03 11:57:43;;;;;;;1.55;0.50;;;14.90;71.90;;;;;;2509396;54;21067;-71
2024/01/03 12:00:12;;;;;;;3.90;0.62;;;15.00;72.10;;;;;;2293658;55;21067;-71
2024/01/03 12:02:48;;;;;;;2.22;0.52;;;15.00;72.00;;;;;;2510219;54;20948;-71
2024/01/03 12:05:15;;;;;;;2.72;0.90;;;15.00;71.40;;;;;;2276010;55;20936;-71
2024/01/03 12:07:41;;;;;;;2.42;0.70;;;15.00;72.10;;;;;;2510159;54;21007;-70
2024/01/03 12:10:10;;;;;;;3.58;1.15;;;15.00;72.00;;;;;;2278017;55;20952;-71
2024/01/03 12:12:36;;;;;;;2.40;0.50;;;15.10;72.70;;;;;;2487997;55;20945;-70
2024/01/03 12:15:03;;;;;;;2.37;0.70;;;15.10;72.00;;;;;;2277164;55;20976;-70
2024/01/03 12:17:31;;;;;;;2.47;0.50;;;15.10;72.00;;;;;;2277859;56;20988;-71
2024/01/03 12:20:11;;;;;;;1.98;0.52;;;15.10;72.00;;;;;;2510202;54;20960;-70
2024/01/03 12:22:38;;;;;;;5.47;0.82;;;15.20;71.10;;;;;;2277636;55;21504;-72
2024/01/03 12:25:04;;;;;;;3.30;0.60;;;15.10;71.80;;;;;;2277565;56;20936;-71
2024/01/03 12:27:32;;;;;;;3.45;0.52;;;15.20;71.80;;;;;;2277472;56;21032;-70
2024/01/03 12:30:18;;;;;;;2.45;0.80;;;15.20;71.80;;;;;;2510341;54;20968;-70
2024/01/03 12:32:46;;;;;;;2.75;0.65;;;15.20;70.70;;;;;;2280209;55;20996;-71
2024/01/03 12:35:13;;;;;;;2.30;0.68;;;15.20;71.50;;;;;;2277228;55;21472;-71
2024/01/03 12:37:44;;;;;;;3.53;0.70;;;15.20;71.40;;;;;;2281704;55;21392;-70
2024/01/03 12:40:14;;;;;;;2.78;0.70;;;15.20;71.50;;;;;;2279078;55;20956;-70
2024/01/03 12:42:41;;;;;;;2.72;0.70;;;15.20;71.60;;;;;;2509719;54;21016;-70
2024/01/03 12:45:09;;;;;;;4.65;0.70;;;15.20;71.50;;;;;;2277132;55;21004;-71
2024/01/03 12:47:35;;;;;;;3.03;0.98;;;15.20;71.60;;;;;;2277626;56;20932;-70
2024/01/03 12:50:05;;;;;;;3.28;0.85;;;15.20;71.60;;;;;;2276900;55;20972;-70
2024/01/03 12:52:32;;;;;;;4.68;0.95;;;15.20;71.70;;;;;;2277263;55;20935;-71
2024/01/03 12:55:02;;;;;;;2.80;0.90;;;15.20;71.80;;;;;;2507879;54;21417;-71